sensor_id;sensor_type;location;lat;lon;timestamp;P1;durP1;ratioP1;P2;durP2;ratioP2
18732;SDS011;9495;51.210;2.934;2023-11-18T00:01:35;21.93;;;9.53;;
18732;SDS011;9495;51.210;2.934;2023-11-18T00:04:03;26.43;;;9.80;;
18732;SDS011;9495;51.210;2.934;2023-11-18T00:06:36;18.77;;;9.70;;
18732;SDS011;9495;51.210;2.934;2023-11-18T00:09:04;23.43;;;10.70;;
18732;SDS011;9495;51.210;2.934;2023-11-18T00:11:33;17.93;;;10.23;;
18732;SDS011;9495;51.210;2.934;2023-11-18T00:14:02;23.40;;;11.07;;
18732;SDS011;9495;51.210;2.934;2023-11-18T00:16:32;22.60;;;10.57;;
18732;SDS011;9495;51.210;2.934;2023-11-18T00:19:01;27.20;;;10.20;;
18732;SDS011;9495;51.210;2.934;2023-11-18T00:21:31;17.40;;;10.27;;
18732;SDS011;9495;51.210;2.934;2023-11-18T00:24:00;17.20;;;9.73;;
18732;SDS011;9495;51.210;2.934;2023-11-18T00:26:28;21.47;;;10.60;;
18732;SDS011;9495;51.210;2.934;2023-11-18T00:28:57;23.20;;;10.33;;
18732;SDS011;9495;51.210;2.934;2023-11-18T00:31:26;21.20;;;10.33;;
18732;SDS011;9495;51.210;2.934;2023-11-18T00:33:57;25.47;;;10.63;;
18732;SDS011;9495;51.210;2.934;2023-11-18T00:36:26;24.13;;;11.10;;
18732;SDS011;9495;51.210;2.934;2023-11-18T00:38:55;23.27;;;10.50;;
18732;SDS011;9495;51.210;2.934;2023-11-18T00:41:23;21.37;;;10.37;;
18732;SDS011;9495;51.210;2.934;2023-11-18T00:43:53;25.10;;;10.03;;
18732;SDS011;9495;51.210;2.934;2023-11-18T00:46:21;24.10;;;10.07;;
18732;SDS011;9495;51.210;2.934;2023-11-18T00:48:50;19.67;;;10.10;;
18732;SDS011;9495;51.210;2.934;2023-11-18T00:51:19;21.30;;;9.90;;
18732;SDS011;9495;51.210;2.934;2023-11-18T00:53:48;24.37;;;10.20;;
18732;SDS011;9495;51.210;2.934;2023-11-18T00:56:17;19.97;;;9.83;;
18732;SDS011;9495;51.210;2.934;2023-11-18T00:58:45;18.30;;;10.40;;
18732;SDS011;9495;51.210;2.934;2023-11-18T01:01:14;19.73;;;9.93;;
18732;SDS011;9495;51.210;2.934;2023-11-18T01:03:44;18.97;;;9.10;;
18732;SDS011;9495;51.210;2.934;2023-11-18T01:06:14;30.77;;;10.23;;
18732;SDS011;9495;51.210;2.934;2023-11-18T01:08:44;21.03;;;9.50;;
18732;SDS011;9495;51.210;2.934;2023-11-18T01:11:15;21.30;;;9.40;;
18732;SDS011;9495;51.210;2.934;2023-11-18T01:13:45;25.03;;;9.00;;
18732;SDS011;9495;51.210;2.934;2023-11-18T01:16:13;23.43;;;9.77;;
18732;SDS011;9495;51.210;2.934;2023-11-18T01:18:42;16.30;;;9.23;;
18732;SDS011;9495;51.210;2.934;2023-11-18T01:21:11;26.47;;;9.57;;
18732;SDS011;9495;51.210;2.934;2023-11-18T01:23:40;24.70;;;8.77;;
18732;SDS011;9495;51.210;2.934;2023-11-18T01:26:13;19.40;;;9.10;;
18732;SDS011;9495;51.210;2.934;2023-11-18T01:28:41;21.83;;;8.57;;
18732;SDS011;9495;51.210;2.934;2023-11-18T01:31:11;25.80;;;9.00;;
18732;SDS011;9495;51.210;2.934;2023-11-18T01:33:40;16.80;;;8.37;;
18732;SDS011;9495;51.210;2.934;2023-11-18T01:36:10;20.30;;;7.80;;
18732;SDS011;9495;51.210;2.934;2023-11-18T01:38:38;27.93;;;9.30;;
18732;SDS011;9495;51.210;2.934;2023-11-18T01:41:07;20.53;;;9.20;;
18732;SDS011;9495;51.210;2.934;2023-11-18T01:43:37;30.30;;;9.10;;
18732;SDS011;9495;51.210;2.934;2023-11-18T01:46:07;22.47;;;8.87;;
18732;SDS011;9495;51.210;2.934;2023-11-18T01:48:39;20.90;;;8.80;;
18732;SDS011;9495;51.210;2.934;2023-11-18T01:51:09;13.23;;;7.83;;
18732;SDS011;9495;51.210;2.934;2023-11-18T01:53:38;20.87;;;7.83;;
18732;SDS011;9495;51.210;2.934;2023-11-18T01:56:10;20.13;;;8.23;;
18732;SDS011;9495;51.210;2.934;2023-11-18T01:58:40;22.17;;;8.10;;
18732;SDS011;9495;51.210;2.934;2023-11-18T02:01:10;19.43;;;8.20;;
18732;SDS011;9495;51.210;2.934;2023-11-18T02:03:43;24.17;;;7.80;;
18732;SDS011;9495;51.210;2.934;2023-11-18T02:06:11;19.20;;;7.10;;
18732;SDS011;9495;51.210;2.934;2023-11-18T02:08:43;20.03;;;8.03;;
18732;SDS011;9495;51.210;2.934;2023-11-18T02:11:14;20.70;;;7.87;;
18732;SDS011;9495;51.210;2.934;2023-11-18T02:13:50;21.73;;;7.93;;
18732;SDS011;9495;51.210;2.934;2023-11-18T02:16:22;18.03;;;8.40;;
18732;SDS011;9495;51.210;2.934;2023-11-18T02:18:54;24.40;;;8.63;;
18732;SDS011;9495;51.210;2.934;2023-11-18T02:21:23;19.47;;;8.40;;
18732;SDS011;9495;51.210;2.934;2023-11-18T02:23:53;18.07;;;8.20;;
18732;SDS011;9495;51.210;2.934;2023-11-18T02:26:23;23.23;;;8.70;;
18732;SDS011;9495;51.210;2.934;2023-11-18T02:28:52;25.10;;;8.40;;
18732;SDS011;9495;51.210;2.934;2023-11-18T02:31:22;23.03;;;7.90;;
18732;SDS011;9495;51.210;2.934;2023-11-18T02:34:00;22.77;;;7.67;;
18732;SDS011;9495;51.210;2.934;2023-11-18T02:36:34;21.30;;;8.23;;
18732;SDS011;9495;51.210;2.934;2023-11-18T02:39:08;17.17;;;7.40;;
18732;SDS011;9495;51.210;2.934;2023-11-18T02:41:46;19.00;;;7.57;;
18732;SDS011;9495;51.210;2.934;2023-11-18T02:44:19;23.17;;;8.07;;
18732;SDS011;9495;51.210;2.934;2023-11-18T02:46:50;25.43;;;8.40;;
18732;SDS011;9495;51.210;2.934;2023-11-18T02:49:18;14.23;;;7.70;;
18732;SDS011;9495;51.210;2.934;2023-11-18T02:51:47;20.47;;;7.43;;
18732;SDS011;9495;51.210;2.934;2023-11-18T02:54:15;18.13;;;7.67;;
18732;SDS011;9495;51.210;2.934;2023-11-18T02:56:45;20.57;;;8.23;;
18732;SDS011;9495;51.210;2.934;2023-11-18T02:59:13;18.93;;;8.00;;
18732;SDS011;9495;51.210;2.934;2023-11-18T03:01:42;17.17;;;7.43;;
18732;SDS011;9495;51.210;2.934;2023-11-18T03:04:11;20.30;;;8.63;;
18732;SDS011;9495;51.210;2.934;2023-11-18T03:06:40;16.53;;;7.73;;
18732;SDS011;9495;51.210;2.934;2023-11-18T03:09:09;17.40;;;7.80;;
18732;SDS011;9495;51.210;2.934;2023-11-18T03:11:40;20.97;;;7.93;;
18732;SDS011;9495;51.210;2.934;2023-11-18T03:14:12;18.00;;;7.33;;
18732;SDS011;9495;51.210;2.934;2023-11-18T03:16:40;21.37;;;7.57;;
18732;SDS011;9495;51.210;2.934;2023-11-18T03:19:11;20.97;;;7.63;;
18732;SDS011;9495;51.210;2.934;2023-11-18T03:21:40;24.20;;;8.20;;
18732;SDS011;9495;51.210;2.934;2023-11-18T03:24:09;21.87;;;7.50;;
18732;SDS011;9495;51.210;2.934;2023-11-18T03:26:38;22.07;;;6.60;;
18732;SDS011;9495;51.210;2.934;2023-11-18T03:29:06;19.53;;;7.27;;
18732;SDS011;9495;51.210;2.934;2023-11-18T03:31:38;15.10;;;6.73;;
18732;SDS011;9495;51.210;2.934;2023-11-18T03:34:07;15.20;;;6.27;;
18732;SDS011;9495;51.210;2.934;2023-11-18T03:36:36;17.97;;;7.10;;
18732;SDS011;9495;51.210;2.934;2023-11-18T03:39:04;14.90;;;6.50;;
18732;SDS011;9495;51.210;2.934;2023-11-18T03:41:33;20.60;;;6.90;;
18732;SDS011;9495;51.210;2.934;2023-11-18T03:44:02;17.40;;;5.63;;
18732;SDS011;9495;51.210;2.934;2023-11-18T03:46:30;16.17;;;6.07;;
18732;SDS011;9495;51.210;2.934;2023-11-18T03:49:02;17.43;;;6.03;;
18732;SDS011;9495;51.210;2.934;2023-11-18T03:51:31;17.27;;;5.63;;
18732;SDS011;9495;51.210;2.934;2023-11-18T03:54:00;18.90;;;5.87;;
18732;SDS011;9495;51.210;2.934;2023-11-18T03:56:28;11.10;;;4.60;;
18732;SDS011;9495;51.210;2.934;2023-11-18T03:58:57;14.30;;;4.90;;
18732;SDS011;9495;51.210;2.934;2023-11-18T04:01:25;11.87;;;5.30;;
18732;SDS011;9495;51.210;2.934;2023-11-18T04:03:54;18.07;;;4.53;;
18732;SDS011;9495;51.210;2.934;2023-11-18T04:06:24;16.30;;;4.20;;
18732;SDS011;9495;51.210;2.934;2023-11-18T04:08:53;14.50;;;4.60;;
18732;SDS011;9495;51.210;2.934;2023-11-18T04:11:21;19.03;;;4.70;;
18732;SDS011;9495;51.210;2.934;2023-11-18T04:13:50;15.80;;;4.50;;
18732;SDS011;9495;51.210;2.934;2023-11-18T04:16:19;14.13;;;4.10;;
18732;SDS011;9495;51.210;2.934;2023-11-18T04:18:47;18.50;;;4.30;;
18732;SDS011;9495;51.210;2.934;2023-11-18T04:21:16;16.57;;;4.17;;
18732;SDS011;9495;51.210;2.934;2023-11-18T04:23:46;9.07;;;4.60;;
18732;SDS011;9495;51.210;2.934;2023-11-18T04:26:14;11.70;;;4.50;;
18732;SDS011;9495;51.210;2.934;2023-11-18T04:28:43;16.27;;;4.47;;
18732;SDS011;9495;51.210;2.934;2023-11-18T04:31:12;15.23;;;4.50;;
18732;SDS011;9495;51.210;2.934;2023-11-18T04:33:40;14.67;;;4.50;;
18732;SDS011;9495;51.210;2.934;2023-11-18T04:36:09;14.10;;;4.73;;
18732;SDS011;9495;51.210;2.934;2023-11-18T04:38:40;14.50;;;5.17;;
18732;SDS011;9495;51.210;2.934;2023-11-18T04:41:09;16.03;;;5.13;;
18732;SDS011;9495;51.210;2.934;2023-11-18T04:43:38;17.30;;;5.00;;
18732;SDS011;9495;51.210;2.934;2023-11-18T04:46:11;14.70;;;4.50;;
18732;SDS011;9495;51.210;2.934;2023-11-18T04:48:40;13.13;;;4.60;;
18732;SDS011;9495;51.210;2.934;2023-11-18T04:51:09;16.93;;;5.23;;
18732;SDS011;9495;51.210;2.934;2023-11-18T04:53:39;19.13;;;5.20;;
18732;SDS011;9495;51.210;2.934;2023-11-18T04:56:07;13.63;;;4.83;;
18732;SDS011;9495;51.210;2.934;2023-11-18T04:58:37;16.93;;;5.07;;
18732;SDS011;9495;51.210;2.934;2023-11-18T05:01:06;12.87;;;5.00;;
18732;SDS011;9495;51.210;2.934;2023-11-18T05:03:35;10.87;;;4.67;;
18732;SDS011;9495;51.210;2.934;2023-11-18T05:06:05;15.73;;;5.13;;
18732;SDS011;9495;51.210;2.934;2023-11-18T05:08:35;15.00;;;4.30;;
18732;SDS011;9495;51.210;2.934;2023-11-18T05:11:04;10.37;;;4.40;;
18732;SDS011;9495;51.210;2.934;2023-11-18T05:13:34;13.77;;;4.83;;
18732;SDS011;9495;51.210;2.934;2023-11-18T05:16:03;14.20;;;5.03;;
18732;SDS011;9495;51.210;2.934;2023-11-18T05:18:32;12.20;;;5.90;;
18732;SDS011;9495;51.210;2.934;2023-11-18T05:21:03;14.17;;;4.97;;
18732;SDS011;9495;51.210;2.934;2023-11-18T05:23:33;19.90;;;5.60;;
18732;SDS011;9495;51.210;2.934;2023-11-18T05:26:02;14.43;;;4.70;;
18732;SDS011;9495;51.210;2.934;2023-11-18T05:28:33;10.67;;;4.03;;
18732;SDS011;9495;51.210;2.934;2023-11-18T05:31:02;10.23;;;4.40;;
18732;SDS011;9495;51.210;2.934;2023-11-18T05:33:31;13.43;;;4.87;;
18732;SDS011;9495;51.210;2.934;2023-11-18T05:36:01;14.17;;;4.63;;
18732;SDS011;9495;51.210;2.934;2023-11-18T05:38:32;14.23;;;4.77;;
18732;SDS011;9495;51.210;2.934;2023-11-18T05:41:02;15.57;;;5.13;;
18732;SDS011;9495;51.210;2.934;2023-11-18T05:43:35;13.80;;;4.73;;
18732;SDS011;9495;51.210;2.934;2023-11-18T05:46:08;10.83;;;3.67;;
18732;SDS011;9495;51.210;2.934;2023-11-18T05:48:47;13.40;;;4.60;;
18732;SDS011;9495;51.210;2.934;2023-11-18T05:51:19;14.60;;;4.87;;
18732;SDS011;9495;51.210;2.934;2023-11-18T05:53:49;12.27;;;4.57;;
18732;SDS011;9495;51.210;2.934;2023-11-18T05:56:18;12.40;;;4.70;;
18732;SDS011;9495;51.210;2.934;2023-11-18T05:58:51;10.87;;;4.93;;
18732;SDS011;9495;51.210;2.934;2023-11-18T06:01:21;13.60;;;4.70;;
18732;SDS011;9495;51.210;2.934;2023-11-18T06:03:50;12.83;;;5.17;;
18732;SDS011;9495;51.210;2.934;2023-11-18T06:06:19;17.13;;;5.20;;
18732;SDS011;9495;51.210;2.934;2023-11-18T06:08:50;12.60;;;5.20;;
18732;SDS011;9495;51.210;2.934;2023-11-18T06:11:20;13.90;;;5.60;;
18732;SDS011;9495;51.210;2.934;2023-11-18T06:13:51;12.87;;;5.30;;
18732;SDS011;9495;51.210;2.934;2023-11-18T06:16:20;14.30;;;4.80;;
18732;SDS011;9495;51.210;2.934;2023-11-18T06:18:51;18.53;;;6.13;;
18732;SDS011;9495;51.210;2.934;2023-11-18T06:21:21;17.37;;;6.10;;
18732;SDS011;9495;51.210;2.934;2023-11-18T06:23:51;10.50;;;5.10;;
18732;SDS011;9495;51.210;2.934;2023-11-18T06:26:21;14.07;;;5.33;;
18732;SDS011;9495;51.210;2.934;2023-11-18T06:28:54;11.33;;;5.30;;
18732;SDS011;9495;51.210;2.934;2023-11-18T06:31:24;18.40;;;6.40;;
18732;SDS011;9495;51.210;2.934;2023-11-18T06:33:53;19.83;;;5.60;;
18732;SDS011;9495;51.210;2.934;2023-11-18T06:36:21;17.90;;;5.50;;
18732;SDS011;9495;51.210;2.934;2023-11-18T06:38:53;13.70;;;5.53;;
18732;SDS011;9495;51.210;2.934;2023-11-18T06:41:22;14.57;;;5.60;;
18732;SDS011;9495;51.210;2.934;2023-11-18T06:43:53;17.07;;;6.37;;
18732;SDS011;9495;51.210;2.934;2023-11-18T06:46:35;17.40;;;6.40;;
18732;SDS011;9495;51.210;2.934;2023-11-18T06:49:07;18.97;;;7.40;;
18732;SDS011;9495;51.210;2.934;2023-11-18T06:51:41;19.30;;;6.37;;
18732;SDS011;9495;51.210;2.934;2023-11-18T06:54:10;14.77;;;5.90;;
18732;SDS011;9495;51.210;2.934;2023-11-18T06:56:40;14.57;;;6.30;;
18732;SDS011;9495;51.210;2.934;2023-11-18T06:59:12;14.57;;;5.50;;
18732;SDS011;9495;51.210;2.934;2023-11-18T07:01:42;16.53;;;6.00;;
18732;SDS011;9495;51.210;2.934;2023-11-18T07:04:12;17.33;;;6.70;;
18732;SDS011;9495;51.210;2.934;2023-11-18T07:06:42;11.97;;;5.40;;
18732;SDS011;9495;51.210;2.934;2023-11-18T07:09:11;12.60;;;5.33;;
18732;SDS011;9495;51.210;2.934;2023-11-18T07:11:45;9.73;;;5.37;;
18732;SDS011;9495;51.210;2.934;2023-11-18T07:14:16;10.23;;;5.33;;
18732;SDS011;9495;51.210;2.934;2023-11-18T07:16:45;8.50;;;5.13;;
18732;SDS011;9495;51.210;2.934;2023-11-18T07:19:14;13.90;;;5.47;;
18732;SDS011;9495;51.210;2.934;2023-11-18T07:21:47;11.93;;;5.33;;
18732;SDS011;9495;51.210;2.934;2023-11-18T07:24:17;13.80;;;5.80;;
18732;SDS011;9495;51.210;2.934;2023-11-18T07:26:47;8.47;;;4.87;;
18732;SDS011;9495;51.210;2.934;2023-11-18T07:29:18;7.93;;;5.33;;
18732;SDS011;9495;51.210;2.934;2023-11-18T07:31:50;10.33;;;5.63;;
18732;SDS011;9495;51.210;2.934;2023-11-18T07:34:21;9.80;;;5.82;;
18732;SDS011;9495;51.210;2.934;2023-11-18T07:36:52;12.50;;;5.70;;
18732;SDS011;9495;51.210;2.934;2023-11-18T07:39:22;10.77;;;6.18;;
18732;SDS011;9495;51.210;2.934;2023-11-18T07:42:10;10.80;;;6.57;;
18732;SDS011;9495;51.210;2.934;2023-11-18T07:44:41;10.00;;;6.50;;
18732;SDS011;9495;51.210;2.934;2023-11-18T07:47:09;15.37;;;8.40;;
18732;SDS011;9495;51.210;2.934;2023-11-18T07:49:38;13.63;;;7.23;;
18732;SDS011;9495;51.210;2.934;2023-11-18T07:52:07;11.63;;;8.10;;
18732;SDS011;9495;51.210;2.934;2023-11-18T07:54:36;17.00;;;8.37;;
18732;SDS011;9495;51.210;2.934;2023-11-18T07:57:05;12.63;;;8.77;;
18732;SDS011;9495;51.210;2.934;2023-11-18T07:59:37;15.40;;;9.40;;
18732;SDS011;9495;51.210;2.934;2023-11-18T08:02:06;12.60;;;7.37;;
18732;SDS011;9495;51.210;2.934;2023-11-18T08:04:37;15.87;;;8.17;;
18732;SDS011;9495;51.210;2.934;2023-11-18T08:07:06;9.98;;;6.57;;
18732;SDS011;9495;51.210;2.934;2023-11-18T08:09:37;13.83;;;7.73;;
18732;SDS011;9495;51.210;2.934;2023-11-18T08:12:06;12.40;;;7.93;;
18732;SDS011;9495;51.210;2.934;2023-11-18T08:14:35;12.27;;;8.03;;
18732;SDS011;9495;51.210;2.934;2023-11-18T08:17:04;11.07;;;7.33;;
18732;SDS011;9495;51.210;2.934;2023-11-18T08:19:34;10.35;;;6.97;;
18732;SDS011;9495;51.210;2.934;2023-11-18T08:22:02;10.90;;;7.60;;
18732;SDS011;9495;51.210;2.934;2023-11-18T08:24:32;10.02;;;7.00;;
18732;SDS011;9495;51.210;2.934;2023-11-18T08:27:00;7.40;;;4.88;;
18732;SDS011;9495;51.210;2.934;2023-11-18T08:29:32;10.95;;;6.10;;
18732;SDS011;9495;51.210;2.934;2023-11-18T08:32:00;9.73;;;6.68;;
18732;SDS011;9495;51.210;2.934;2023-11-18T08:34:29;13.13;;;6.70;;
18732;SDS011;9495;51.210;2.934;2023-11-18T08:37:01;10.05;;;5.90;;
18732;SDS011;9495;51.210;2.934;2023-11-18T08:39:30;11.88;;;7.28;;
18732;SDS011;9495;51.210;2.934;2023-11-18T08:41:58;5.07;;;3.53;;
18732;SDS011;9495;51.210;2.934;2023-11-18T08:44:27;6.13;;;4.20;;
18732;SDS011;9495;51.210;2.934;2023-11-18T08:46:55;7.18;;;4.65;;
18732;SDS011;9495;51.210;2.934;2023-11-18T08:49:25;6.35;;;3.55;;
18732;SDS011;9495;51.210;2.934;2023-11-18T08:52:02;4.72;;;3.30;;
18732;SDS011;9495;51.210;2.934;2023-11-18T08:54:36;8.40;;;5.30;;
18732;SDS011;9495;51.210;2.934;2023-11-18T08:57:04;7.45;;;5.03;;
18732;SDS011;9495;51.210;2.934;2023-11-18T08:59:49;6.63;;;5.50;;
18732;SDS011;9495;51.210;2.934;2023-11-18T09:02:18;6.88;;;5.38;;
18732;SDS011;9495;51.210;2.934;2023-11-18T09:04:50;5.65;;;4.80;;
18732;SDS011;9495;51.210;2.934;2023-11-18T09:07:21;5.25;;;4.18;;
18732;SDS011;9495;51.210;2.934;2023-11-18T09:09:49;7.22;;;4.28;;
18732;SDS011;9495;51.210;2.934;2023-11-18T09:12:19;7.05;;;2.85;;
18732;SDS011;9495;51.210;2.934;2023-11-18T09:14:48;5.00;;;4.50;;
18732;SDS011;9495;51.210;2.934;2023-11-18T09:17:18;27.75;;;4.13;;
18732;SDS011;9495;51.210;2.934;2023-11-18T09:19:49;4.40;;;3.97;;
18732;SDS011;9495;51.210;2.934;2023-11-18T09:22:19;3.35;;;2.78;;
18732;SDS011;9495;51.210;2.934;2023-11-18T09:24:50;4.32;;;3.75;;
18732;SDS011;9495;51.210;2.934;2023-11-18T09:27:19;4.63;;;3.08;;
18732;SDS011;9495;51.210;2.934;2023-11-18T09:29:49;4.97;;;4.07;;
18732;SDS011;9495;51.210;2.934;2023-11-18T09:32:17;2.75;;;1.88;;
18732;SDS011;9495;51.210;2.934;2023-11-18T09:34:47;2.45;;;2.13;;
18732;SDS011;9495;51.210;2.934;2023-11-18T09:37:15;4.10;;;2.63;;
18732;SDS011;9495;51.210;2.934;2023-11-18T09:39:46;4.97;;;3.10;;
18732;SDS011;9495;51.210;2.934;2023-11-18T09:42:19;3.92;;;2.80;;
18732;SDS011;9495;51.210;2.934;2023-11-18T09:44:50;5.00;;;3.10;;
18732;SDS011;9495;51.210;2.934;2023-11-18T09:47:21;3.65;;;2.55;;
18732;SDS011;9495;51.210;2.934;2023-11-18T09:49:54;3.08;;;1.45;;
18732;SDS011;9495;51.210;2.934;2023-11-18T09:52:28;4.95;;;3.00;;
18732;SDS011;9495;51.210;2.934;2023-11-18T09:55:01;3.30;;;2.58;;
18732;SDS011;9495;51.210;2.934;2023-11-18T09:57:43;3.25;;;2.22;;
18732;SDS011;9495;51.210;2.934;2023-11-18T10:00:15;4.25;;;2.60;;
18732;SDS011;9495;51.210;2.934;2023-11-18T10:02:53;4.15;;;2.53;;
18732;SDS011;9495;51.210;2.934;2023-11-18T10:05:24;4.55;;;1.58;;
18732;SDS011;9495;51.210;2.934;2023-11-18T10:07:54;3.83;;;2.30;;
18732;SDS011;9495;51.210;2.934;2023-11-18T10:10:26;4.60;;;2.80;;
18732;SDS011;9495;51.210;2.934;2023-11-18T10:13:03;2.60;;;1.92;;
18732;SDS011;9495;51.210;2.934;2023-11-18T10:15:45;4.47;;;2.72;;
18732;SDS011;9495;51.210;2.934;2023-11-18T10:18:17;3.47;;;1.98;;
18732;SDS011;9495;51.210;2.934;2023-11-18T10:20:50;3.05;;;2.15;;
18732;SDS011;9495;51.210;2.934;2023-11-18T10:23:20;4.45;;;2.40;;
18732;SDS011;9495;51.210;2.934;2023-11-18T10:25:51;4.28;;;2.25;;
18732;SDS011;9495;51.210;2.934;2023-11-18T10:28:21;1.38;;;1.20;;
18732;SDS011;9495;51.210;2.934;2023-11-18T10:30:51;3.42;;;2.00;;
18732;SDS011;9495;51.210;2.934;2023-11-18T10:33:19;2.88;;;2.33;;
18732;SDS011;9495;51.210;2.934;2023-11-18T10:35:49;3.65;;;1.85;;
18732;SDS011;9495;51.210;2.934;2023-11-18T10:38:19;2.22;;;1.80;;
18732;SDS011;9495;51.210;2.934;2023-11-18T10:40:56;3.78;;;2.05;;
18732;SDS011;9495;51.210;2.934;2023-11-18T10:43:27;1.70;;;1.23;;
18732;SDS011;9495;51.210;2.934;2023-11-18T10:46:05;1.55;;;1.30;;
18732;SDS011;9495;51.210;2.934;2023-11-18T10:48:41;1.30;;;1.20;;
18732;SDS011;9495;51.210;2.934;2023-11-18T10:51:14;2.28;;;1.80;;
18732;SDS011;9495;51.210;2.934;2023-11-18T10:53:46;2.90;;;1.33;;
18732;SDS011;9495;51.210;2.934;2023-11-18T10:56:27;1.88;;;1.27;;
18732;SDS011;9495;51.210;2.934;2023-11-18T10:58:56;1.67;;;1.30;;
18732;SDS011;9495;51.210;2.934;2023-11-18T11:01:29;1.92;;;1.05;;
18732;SDS011;9495;51.210;2.934;2023-11-18T11:03:58;1.75;;;1.50;;
18732;SDS011;9495;51.210;2.934;2023-11-18T11:06:31;1.48;;;1.38;;
18732;SDS011;9495;51.210;2.934;2023-11-18T11:09:01;1.77;;;1.42;;
18732;SDS011;9495;51.210;2.934;2023-11-18T11:11:39;0.80;;;0.80;;
18732;SDS011;9495;51.210;2.934;2023-11-18T11:14:13;5.10;;;2.20;;
18732;SDS011;9495;51.210;2.934;2023-11-18T11:16:46;1.80;;;1.55;;
18732;SDS011;9495;51.210;2.934;2023-11-18T11:19:29;1.67;;;1.50;;
18732;SDS011;9495;51.210;2.934;2023-11-18T11:22:11;3.17;;;1.60;;
18732;SDS011;9495;51.210;2.934;2023-11-18T11:24:51;2.92;;;1.50;;
18732;SDS011;9495;51.210;2.934;2023-11-18T11:27:28;1.73;;;1.30;;
18732;SDS011;9495;51.210;2.934;2023-11-18T11:30:10;2.67;;;1.10;;
18732;SDS011;9495;51.210;2.934;2023-11-18T11:32:50;1.13;;;1.00;;
18732;SDS011;9495;51.210;2.934;2023-11-18T11:35:22;2.95;;;1.42;;
18732;SDS011;9495;51.210;2.934;2023-11-18T11:37:52;0.70;;;0.60;;
18732;SDS011;9495;51.210;2.934;2023-11-18T11:40:29;2.10;;;1.10;;
18732;SDS011;9495;51.210;2.934;2023-11-18T11:43:00;1.73;;;1.20;;
18732;SDS011;9495;51.210;2.934;2023-11-18T11:45:31;2.22;;;1.20;;
18732;SDS011;9495;51.210;2.934;2023-11-18T11:48:03;1.52;;;1.23;;
18732;SDS011;9495;51.210;2.934;2023-11-18T11:50:55;1.00;;;0.70;;
18732;SDS011;9495;51.210;2.934;2023-11-18T11:53:32;1.88;;;1.40;;
18732;SDS011;9495;51.210;2.934;2023-11-18T11:56:06;1.40;;;1.10;;
18732;SDS011;9495;51.210;2.934;2023-11-18T11:58:42;0.80;;;0.80;;
18732;SDS011;9495;51.210;2.934;2023-11-18T12:01:21;1.45;;;1.35;;
18732;SDS011;9495;51.210;2.934;2023-11-18T12:03:56;0.90;;;0.90;;
18732;SDS011;9495;51.210;2.934;2023-11-18T12:06:33;1.27;;;1.17;;
18732;SDS011;9495;51.210;2.934;2023-11-18T12:09:08;0.88;;;0.82;;
18732;SDS011;9495;51.210;2.934;2023-11-18T12:11:38;1.70;;;1.30;;
18732;SDS011;9495;51.210;2.934;2023-11-18T12:14:14;1.52;;;1.10;;
18732;SDS011;9495;51.210;2.934;2023-11-18T12:17:00;1.30;;;1.08;;
18732;SDS011;9495;51.210;2.934;2023-11-18T12:19:34;1.33;;;1.23;;
18732;SDS011;9495;51.210;2.934;2023-11-18T12:22:11;1.20;;;1.10;;
18732;SDS011;9495;51.210;2.934;2023-11-18T12:24:45;0.95;;;0.90;;
18732;SDS011;9495;51.210;2.934;2023-11-18T12:27:41;1.20;;;1.10;;
18732;SDS011;9495;51.210;2.934;2023-11-18T12:30:38;0.90;;;0.90;;
18732;SDS011;9495;51.210;2.934;2023-11-18T12:33:25;1.83;;;1.40;;
18732;SDS011;9495;51.210;2.934;2023-11-18T12:36:21;1.40;;;1.30;;
18732;SDS011;9495;51.210;2.934;2023-11-18T12:42:27;1.40;;;1.30;;
18732;SDS011;9495;51.210;2.934;2023-11-18T12:45:27;1.77;;;0.82;;
18732;SDS011;9495;51.210;2.934;2023-11-18T12:48:13;1.38;;;1.27;;
18732;SDS011;9495;51.210;2.934;2023-11-18T12:50:42;2.33;;;1.38;;
18732;SDS011;9495;51.210;2.934;2023-11-18T12:53:12;2.15;;;1.45;;
18732;SDS011;9495;51.210;2.934;2023-11-18T12:55:42;1.73;;;1.60;;
18732;SDS011;9495;51.210;2.934;2023-11-18T12:58:11;1.60;;;1.33;;
18732;SDS011;9495;51.210;2.934;2023-11-18T13:00:40;3.60;;;1.35;;
18732;SDS011;9495;51.210;2.934;2023-11-18T13:03:11;1.45;;;1.23;;
18732;SDS011;9495;51.210;2.934;2023-11-18T13:05:42;2.30;;;1.77;;
18732;SDS011;9495;51.210;2.934;2023-11-18T13:08:11;1.83;;;1.70;;
18732;SDS011;9495;51.210;2.934;2023-11-18T13:10:42;1.88;;;1.13;;
18732;SDS011;9495;51.210;2.934;2023-11-18T13:13:11;2.97;;;1.48;;
18732;SDS011;9495;51.210;2.934;2023-11-18T13:15:43;1.42;;;1.33;;
18732;SDS011;9495;51.210;2.934;2023-11-18T13:18:13;2.20;;;1.50;;
18732;SDS011;9495;51.210;2.934;2023-11-18T13:20:45;1.85;;;1.17;;
18732;SDS011;9495;51.210;2.934;2023-11-18T13:23:22;2.55;;;1.50;;
18732;SDS011;9495;51.210;2.934;2023-11-18T13:25:54;2.03;;;1.48;;
18732;SDS011;9495;51.210;2.934;2023-11-18T13:28:23;3.30;;;1.38;;
18732;SDS011;9495;51.210;2.934;2023-11-18T13:30:52;1.40;;;1.30;;
18732;SDS011;9495;51.210;2.934;2023-11-18T13:33:22;1.98;;;1.70;;
18732;SDS011;9495;51.210;2.934;2023-11-18T13:35:51;0.73;;;0.73;;
18732;SDS011;9495;51.210;2.934;2023-11-18T13:38:20;2.67;;;1.70;;
18732;SDS011;9495;51.210;2.934;2023-11-18T13:40:48;1.50;;;1.40;;
18732;SDS011;9495;51.210;2.934;2023-11-18T13:43:18;1.55;;;1.45;;
18732;SDS011;9495;51.210;2.934;2023-11-18T13:45:50;1.05;;;0.95;;
18732;SDS011;9495;51.210;2.934;2023-11-18T13:48:21;1.77;;;1.48;;
18732;SDS011;9495;51.210;2.934;2023-11-18T13:50:51;2.05;;;1.80;;
18732;SDS011;9495;51.210;2.934;2023-11-18T13:53:20;2.05;;;1.90;;
18732;SDS011;9495;51.210;2.934;2023-11-18T13:55:49;1.90;;;1.75;;
18732;SDS011;9495;51.210;2.934;2023-11-18T13:58:17;1.42;;;1.33;;
18732;SDS011;9495;51.210;2.934;2023-11-18T14:00:46;2.75;;;1.60;;
18732;SDS011;9495;51.210;2.934;2023-11-18T14:03:15;2.25;;;1.40;;
18732;SDS011;9495;51.210;2.934;2023-11-18T14:05:46;2.00;;;1.83;;
18732;SDS011;9495;51.210;2.934;2023-11-18T14:08:17;1.70;;;1.60;;
18732;SDS011;9495;51.210;2.934;2023-11-18T14:10:46;1.40;;;1.20;;
18732;SDS011;9495;51.210;2.934;2023-11-18T14:13:29;1.77;;;1.35;;
18732;SDS011;9495;51.210;2.934;2023-11-18T14:15:57;2.30;;;1.52;;
18732;SDS011;9495;51.210;2.934;2023-11-18T14:18:26;3.28;;;1.92;;
18732;SDS011;9495;51.210;2.934;2023-11-18T14:20:56;2.17;;;1.45;;
18732;SDS011;9495;51.210;2.934;2023-11-18T14:23:27;1.50;;;1.40;;
18732;SDS011;9495;51.210;2.934;2023-11-18T14:25:56;3.13;;;1.63;;
18732;SDS011;9495;51.210;2.934;2023-11-18T14:28:24;1.88;;;1.40;;
18732;SDS011;9495;51.210;2.934;2023-11-18T14:30:54;2.00;;;1.90;;
18732;SDS011;9495;51.210;2.934;2023-11-18T14:33:23;1.73;;;1.63;;
18732;SDS011;9495;51.210;2.934;2023-11-18T14:35:51;1.60;;;1.50;;
18732;SDS011;9495;51.210;2.934;2023-11-18T14:38:21;2.50;;;1.60;;
18732;SDS011;9495;51.210;2.934;2023-11-18T14:40:50;2.90;;;1.70;;
18732;SDS011;9495;51.210;2.934;2023-11-18T14:43:20;4.43;;;1.50;;
18732;SDS011;9495;51.210;2.934;2023-11-18T14:45:48;2.45;;;1.90;;
18732;SDS011;9495;51.210;2.934;2023-11-18T14:48:17;2.70;;;1.88;;
18732;SDS011;9495;51.210;2.934;2023-11-18T14:50:45;2.38;;;1.63;;
18732;SDS011;9495;51.210;2.934;2023-11-18T14:53:14;2.03;;;1.40;;
18732;SDS011;9495;51.210;2.934;2023-11-18T14:55:44;2.22;;;1.40;;
18732;SDS011;9495;51.210;2.934;2023-11-18T14:58:12;1.65;;;1.40;;
18732;SDS011;9495;51.210;2.934;2023-11-18T15:00:41;2.22;;;1.25;;
18732;SDS011;9495;51.210;2.934;2023-11-18T15:03:10;1.92;;;1.55;;
18732;SDS011;9495;51.210;2.934;2023-11-18T15:05:39;1.50;;;1.30;;
18732;SDS011;9495;51.210;2.934;2023-11-18T15:08:10;1.20;;;1.10;;
18732;SDS011;9495;51.210;2.934;2023-11-18T15:10:39;1.27;;;1.17;;
18732;SDS011;9495;51.210;2.934;2023-11-18T15:13:12;2.58;;;1.35;;
18732;SDS011;9495;51.210;2.934;2023-11-18T15:15:42;1.20;;;1.08;;
18732;SDS011;9495;51.210;2.934;2023-11-18T15:18:14;1.95;;;1.30;;
18732;SDS011;9495;51.210;2.934;2023-11-18T15:20:44;2.17;;;1.20;;